createdAt,value
2023-02-24T00:00:32.435Z,16.50
2023-02-24T00:03:06.724Z,16.20
2023-02-24T00:05:39.187Z,16.40
2023-02-24T00:08:08.432Z,16.40
2023-02-24T00:10:37.506Z,16.40
2023-02-24T00:13:05.522Z,16.40
2023-02-24T00:15:33.507Z,16.40
2023-02-24T00:18:06.935Z,16.40
2023-02-24T00:20:36.195Z,16.40
2023-02-24T00:23:04.406Z,16.30
2023-02-24T00:25:33.558Z,16.30
2023-02-24T00:28:02.501Z,16.40
2023-02-24T00:30:32.757Z,16.20
2023-02-24T00:33:02.715Z,16.30
2023-02-24T00:35:32.301Z,16.30
2023-02-24T00:38:00.742Z,16.30
2023-02-24T00:40:30.685Z,16.30
2023-02-24T00:43:01.947Z,16.30
2023-02-24T00:45:30.817Z,16.30
2023-02-24T00:47:59.011Z,16.30
2023-02-24T00:50:27.328Z,16.30
2023-02-24T00:52:55.130Z,16.30
2023-02-24T00:55:23.235Z,16.30
2023-02-24T00:57:51.683Z,16.30
2023-02-24T01:00:23.344Z,16.20
2023-02-24T01:02:51.267Z,16.30
2023-02-24T01:05:20.265Z,16.20
2023-02-24T01:07:48.262Z,16.20
2023-02-24T01:10:18.281Z,16.20
2023-02-24T01:12:53.832Z,16.20
2023-02-24T01:15:24.328Z,16.20
2023-02-24T01:17:52.306Z,16.20
2023-02-24T01:20:20.594Z,16.20
2023-02-24T01:22:52.958Z,16.20
2023-02-24T01:25:21.261Z,16.20
2023-02-24T01:27:49.654Z,16.20
2023-02-24T01:30:18.683Z,16.00
2023-02-24T01:32:48.892Z,16.10
2023-02-24T01:35:17.810Z,16.10
2023-02-24T01:37:46.181Z,16.10
2023-02-24T01:40:18.669Z,16.10
2023-02-24T01:42:49.664Z,16.10
2023-02-24T01:45:25.873Z,16.10
2023-02-24T01:48:01.722Z,16.10
2023-02-24T01:50:30.418Z,16.10
2023-02-24T01:53:04.079Z,16.00
2023-02-24T01:55:38.921Z,16.00
2023-02-24T01:58:12.509Z,16.00
2023-02-24T02:00:46.805Z,16.00
2023-02-24T02:03:25.099Z,16.00
2023-02-24T02:05:56.816Z,16.00
2023-02-24T02:08:25.484Z,16.00
2023-02-24T02:10:58.921Z,16.00
2023-02-24T02:13:29.603Z,16.00
2023-02-24T02:16:14.505Z,15.90
2023-02-24T02:18:59.000Z,15.90
2023-02-24T02:22:17.584Z,15.90
2023-02-24T02:24:56.052Z,15.90
2023-02-24T02:27:48.320Z,15.80
2023-02-24T02:30:56.455Z,15.80
2023-02-24T02:34:22.497Z,15.80
2023-02-24T02:37:02.666Z,15.80
2023-02-24T02:39:49.132Z,15.80
2023-02-24T02:42:30.109Z,15.80
2023-02-24T02:45:07.775Z,15.70
2023-02-24T02:47:43.210Z,15.80
2023-02-24T02:50:19.633Z,15.80
2023-02-24T02:52:55.168Z,15.70
2023-02-24T02:55:34.605Z,15.70
2023-02-24T02:58:09.229Z,15.80
2023-02-24T03:00:43.482Z,15.70
2023-02-24T03:03:17.682Z,15.70
2023-02-24T03:05:53.501Z,15.70
2023-02-24T03:08:27.312Z,15.70
2023-02-24T03:11:00.346Z,15.70
2023-02-24T03:13:32.627Z,15.70
2023-02-24T03:16:03.616Z,15.70
2023-02-24T03:18:37.642Z,15.50
2023-02-24T03:21:12.202Z,15.50
2023-02-24T03:23:48.657Z,15.70
2023-02-24T03:26:24.770Z,15.60
2023-02-24T03:29:07.310Z,15.60
2023-02-24T03:31:45.899Z,15.60
2023-02-24T03:34:23.834Z,15.60
2023-02-24T03:36:54.787Z,15.60
2023-02-24T03:39:24.804Z,15.60
2023-02-24T03:42:10.056Z,15.60
2023-02-24T03:44:38.161Z,15.60
2023-02-24T03:47:06.225Z,15.60
2023-02-24T03:49:37.617Z,15.60
2023-02-24T03:52:21.638Z,15.50
2023-02-24T03:55:10.432Z,15.50
2023-02-24T03:57:59.981Z,15.50
2023-02-24T04:00:47.141Z,15.50
2023-02-24T04:03:29.510Z,15.50
2023-02-24T04:06:14.907Z,15.50
2023-02-24T04:08:53.392Z,15.50
2023-02-24T04:11:30.384Z,15.40
2023-02-24T04:14:08.476Z,15.40
2023-02-24T04:16:44.753Z,15.40
2023-02-24T04:19:19.306Z,15.40
2023-02-24T04:21:51.592Z,15.40
2023-02-24T04:24:31.129Z,15.40
2023-02-24T04:27:02.697Z,15.40
2023-02-24T04:29:41.253Z,15.40
2023-02-24T04:32:13.295Z,15.40
2023-02-24T04:34:42.435Z,15.40
2023-02-24T04:37:10.553Z,15.40
2023-02-24T04:39:39.898Z,15.40
2023-02-24T04:42:16.939Z,15.40
2023-02-24T04:44:46.518Z,15.40
2023-02-24T04:47:14.516Z,15.40
2023-02-24T04:49:44.431Z,15.30
2023-02-24T04:52:15.178Z,15.30
2023-02-24T04:54:44.741Z,15.30
2023-02-24T04:57:12.787Z,15.30
2023-02-24T04:59:40.828Z,15.30
2023-02-24T05:02:08.735Z,15.30
2023-02-24T05:04:38.965Z,15.30
2023-02-24T05:07:07.002Z,15.30
2023-02-24T05:09:34.842Z,15.30
2023-02-24T05:12:05.157Z,15.20
2023-02-24T05:14:33.058Z,15.10
2023-02-24T05:17:01.009Z,15.20
2023-02-24T05:19:47.311Z,15.20
2023-02-24T05:22:18.588Z,15.20
2023-02-24T05:24:47.953Z,15.20
2023-02-24T05:27:17.316Z,15.20
2023-02-24T05:29:45.786Z,15.20
2023-02-24T05:32:16.248Z,15.10
2023-02-24T05:34:44.235Z,15.10
2023-02-24T05:37:12.106Z,15.10
2023-02-24T05:39:40.981Z,15.10
2023-02-24T05:42:09.241Z,15.10
2023-02-24T05:44:38.505Z,15.10
2023-02-24T05:47:06.698Z,15.10
2023-02-24T05:49:36.340Z,15.00
2023-02-24T05:52:09.147Z,15.00
2023-02-24T05:54:40.432Z,15.00
2023-02-24T05:57:12.501Z,15.00
2023-02-24T05:59:44.581Z,15.00
2023-02-24T06:02:15.857Z,15.00
2023-02-24T06:04:50.723Z,14.90
2023-02-24T06:07:22.756Z,14.90
2023-02-24T06:09:53.835Z,14.90
2023-02-24T06:12:24.304Z,14.90
2023-02-24T06:14:53.913Z,14.90
2023-02-24T06:17:23.066Z,14.90
2023-02-24T06:19:53.288Z,14.80
2023-02-24T06:22:25.563Z,14.80
2023-02-24T06:24:56.850Z,14.70
2023-02-24T06:27:25.732Z,14.80
2023-02-24T06:29:56.659Z,14.80
2023-02-24T06:32:27.975Z,14.80
2023-02-24T06:34:57.405Z,14.70
2023-02-24T06:37:25.558Z,14.70
2023-02-24T06:39:53.486Z,14.60
2023-02-24T06:42:21.436Z,14.70
2023-02-24T06:44:50.397Z,14.70
2023-02-24T06:47:19.790Z,14.60
2023-02-24T06:49:47.876Z,14.60
2023-02-24T06:52:18.771Z,14.40
2023-02-24T06:54:52.288Z,14.60
2023-02-24T06:57:20.711Z,14.60
2023-02-24T06:59:48.957Z,14.60
2023-02-24T07:02:18.454Z,14.50
2023-02-24T07:04:48.102Z,14.50
2023-02-24T07:07:17.307Z,14.50
2023-02-24T07:09:45.421Z,14.50
2023-02-24T07:12:20.843Z,14.50
2023-02-24T07:14:50.321Z,14.40
2023-02-24T07:17:19.821Z,14.40
2023-02-24T07:19:49.054Z,14.40
2023-02-24T07:22:17.498Z,14.40
2023-02-24T07:24:46.275Z,14.40
2023-02-24T07:27:22.995Z,14.30
2023-02-24T07:29:53.893Z,14.30
2023-02-24T07:32:23.719Z,14.30
2023-02-24T07:34:53.178Z,14.30
2023-02-24T07:37:23.530Z,14.30
2023-02-24T07:39:51.765Z,14.30
2023-02-24T07:42:19.631Z,14.20
2023-02-24T07:44:49.304Z,14.20
2023-02-24T07:47:17.345Z,14.20
2023-02-24T07:49:45.916Z,14.20
2023-02-24T07:52:16.042Z,14.20
2023-02-24T07:54:44.236Z,14.20
2023-02-24T07:57:13.709Z,14.20
2023-02-24T07:59:47.359Z,14.20
2023-02-24T08:02:16.091Z,14.20
2023-02-24T08:04:49.979Z,14.10
2023-02-24T08:07:24.448Z,14.10
2023-02-24T08:10:14.044Z,14.10
2023-02-24T08:12:43.556Z,14.10
2023-02-24T08:15:23.900Z,14.10
2023-02-24T08:17:59.626Z,13.90
2023-02-24T08:20:29.924Z,14.10
2023-02-24T08:22:59.348Z,14.00
2023-02-24T08:25:36.453Z,14.00
2023-02-24T08:28:11.369Z,14.00
2023-02-24T08:30:45.322Z,14.00
2023-02-24T08:33:20.963Z,14.00
2023-02-24T08:36:00.897Z,14.00
2023-02-24T08:38:44.902Z,13.90
2023-02-24T08:41:17.942Z,13.90
2023-02-24T08:43:47.331Z,14.00
2023-02-24T08:46:20.973Z,13.90
2023-02-24T08:48:55.477Z,13.90
2023-02-24T08:51:28.856Z,13.90
2023-02-24T08:54:02.003Z,13.90
2023-02-24T08:56:34.742Z,13.90
2023-02-24T08:59:06.504Z,13.90
2023-02-24T09:01:37.942Z,13.90
2023-02-24T09:04:09.694Z,13.90
2023-02-24T09:06:44.567Z,13.80
2023-02-24T09:09:18.504Z,13.90
2023-02-24T09:11:49.360Z,13.90
2023-02-24T09:14:27.220Z,13.80
2023-02-24T09:17:05.652Z,13.80
2023-02-24T09:19:54.131Z,13.80
2023-02-24T09:22:31.404Z,13.80
2023-02-24T09:25:21.190Z,13.80
2023-02-24T09:27:56.327Z,13.80
2023-02-24T09:30:38.682Z,13.80
2023-02-24T09:33:19.142Z,13.80
2023-02-24T09:35:54.282Z,13.80
2023-02-24T09:38:46.033Z,13.80
2023-02-24T09:41:33.680Z,13.80
2023-02-24T09:44:07.638Z,13.80
2023-02-24T09:46:54.112Z,13.80
2023-02-24T09:49:27.742Z,13.80
2023-02-24T09:52:00.562Z,13.80
2023-02-24T09:54:35.309Z,13.80
2023-02-24T09:57:17.885Z,13.80
2023-02-24T10:00:21.908Z,13.80
2023-02-24T10:03:03.833Z,13.80
2023-02-24T10:05:47.945Z,13.80
2023-02-24T10:08:33.933Z,13.80
2023-02-24T10:11:07.938Z,13.90
2023-02-24T10:13:48.073Z,13.90
2023-02-24T10:16:23.901Z,13.90
2023-02-24T10:19:11.719Z,13.90
2023-02-24T10:22:00.466Z,13.90
2023-02-24T10:24:37.089Z,13.90
2023-02-24T10:27:17.058Z,13.90
2023-02-24T10:30:05.683Z,13.90
2023-02-24T10:32:48.852Z,13.90
2023-02-24T10:35:19.353Z,13.80
2023-02-24T10:37:49.170Z,14.00
2023-02-24T10:40:26.443Z,14.00
2023-02-24T10:43:10.385Z,13.90
2023-02-24T10:45:45.141Z,13.80
2023-02-24T10:48:40.424Z,14.00
2023-02-24T10:51:19.981Z,14.00
2023-02-24T10:54:10.020Z,14.00
2023-02-24T10:56:44.573Z,14.00
2023-02-24T10:59:36.461Z,14.00
2023-02-24T11:02:29.706Z,14.00
2023-02-24T11:05:25.022Z,14.00
2023-02-24T11:08:36.187Z,14.00
2023-02-24T11:11:20.254Z,14.00
2023-02-24T11:14:10.644Z,14.00
2023-02-24T11:17:03.072Z,14.00
2023-02-24T11:19:37.700Z,14.00
2023-02-24T11:22:08.806Z,14.10
2023-02-24T11:24:39.401Z,14.10
2023-02-24T11:27:08.796Z,14.10
2023-02-24T11:29:58.314Z,14.10
2023-02-24T11:32:45.484Z,14.10
2023-02-24T11:35:24.444Z,14.00
2023-02-24T11:38:07.805Z,14.10
2023-02-24T11:40:43.389Z,14.20
2023-02-24T11:43:18.421Z,14.20
2023-02-24T11:45:53.405Z,14.20
2023-02-24T11:48:25.324Z,14.20
2023-02-24T11:51:01.234Z,14.20
2023-02-24T11:53:38.495Z,14.30
2023-02-24T11:56:15.126Z,14.30
2023-02-24T11:58:51.443Z,14.30
2023-02-24T12:01:30.143Z,14.30
2023-02-24T12:04:13.219Z,14.30
2023-02-24T12:06:56.936Z,14.30
2023-02-24T12:09:31.598Z,14.30
2023-02-24T12:12:07.151Z,14.40
2023-02-24T12:14:40.782Z,14.40
2023-02-24T12:17:23.402Z,14.40
2023-02-24T12:20:06.580Z,14.40
2023-02-24T12:22:47.912Z,14.40
2023-02-24T12:25:19.201Z,14.50
2023-02-24T12:28:06.448Z,14.50
2023-02-24T12:30:49.570Z,14.50
2023-02-24T12:33:37.457Z,14.50
2023-02-24T12:36:21.398Z,14.50
2023-02-24T12:39:06.923Z,14.50
2023-02-24T12:41:53.666Z,14.50
2023-02-24T12:44:35.653Z,14.50
2023-02-24T12:47:12.231Z,14.50
2023-02-24T12:50:11.888Z,14.50
2023-02-24T12:52:55.717Z,14.60
2023-02-24T12:55:34.188Z,14.60
2023-02-24T12:58:13.011Z,14.60
2023-02-24T13:00:56.055Z,14.60
2023-02-24T13:03:44.148Z,14.60
2023-02-24T13:06:22.940Z,14.60
2023-02-24T13:09:02.628Z,14.60
2023-02-24T13:11:43.612Z,14.60
2023-02-24T13:14:25.570Z,14.60
2023-02-24T13:17:17.610Z,14.60
2023-02-24T13:19:47.318Z,14.60
2023-02-24T13:22:31.795Z,14.60
2023-02-24T13:25:20.551Z,14.60
2023-02-24T13:28:01.078Z,14.60
2023-02-24T13:30:38.013Z,14.60
2023-02-24T13:33:24.814Z,14.60
2023-02-24T13:36:08.265Z,14.60
2023-02-24T13:38:40.512Z,14.60
2023-02-24T13:41:23.248Z,14.60
2023-02-24T13:44:21.775Z,14.60
2023-02-24T13:47:20.975Z,14.60
2023-02-24T13:50:07.033Z,14.60
2023-02-24T13:52:54.387Z,14.60
2023-02-24T13:55:39.846Z,14.60
2023-02-24T13:58:29.589Z,14.60
2023-02-24T14:01:09.657Z,14.60
2023-02-24T14:03:41.807Z,14.60
2023-02-24T14:06:21.348Z,14.60
2023-02-24T14:08:54.241Z,14.60
2023-02-24T14:11:28.849Z,14.60
2023-02-24T14:13:58.719Z,14.60
2023-02-24T14:16:38.348Z,14.60
2023-02-24T14:19:14.109Z,14.60
2023-02-24T14:21:51.496Z,14.60
2023-02-24T14:24:20.341Z,14.70
2023-02-24T14:26:52.036Z,14.70
2023-02-24T14:29:25.471Z,14.70
2023-02-24T14:31:59.220Z,14.70
2023-02-24T14:34:30.747Z,14.70
2023-02-24T14:37:03.324Z,14.70
2023-02-24T14:39:34.256Z,14.70
2023-02-24T14:42:15.822Z,14.60
2023-02-24T14:44:47.699Z,14.70
2023-02-24T14:47:20.537Z,14.70
2023-02-24T14:49:59.214Z,14.60
2023-02-24T14:52:36.704Z,14.60
2023-02-24T14:55:09.196Z,14.60
2023-02-24T14:57:45.054Z,14.60
2023-02-24T15:00:23.825Z,14.60
2023-02-24T15:03:06.987Z,14.50
2023-02-24T15:05:35.181Z,14.60
2023-02-24T15:08:04.177Z,14.60
2023-02-24T15:10:32.997Z,14.60
2023-02-24T15:13:11.410Z,14.50
2023-02-24T15:15:39.957Z,14.60
2023-02-24T15:18:21.971Z,14.50
2023-02-24T15:21:01.969Z,14.50
2023-02-24T15:23:34.003Z,14.50
2023-02-24T15:26:02.679Z,14.50
2023-02-24T15:28:33.662Z,14.50
2023-02-24T15:31:08.472Z,14.50
2023-02-24T15:33:41.844Z,14.50
2023-02-24T15:36:17.225Z,14.50
2023-02-24T15:38:46.864Z,14.50
2023-02-24T15:41:17.904Z,14.50
2023-02-24T15:43:53.066Z,14.40
2023-02-24T15:46:29.053Z,14.40
2023-02-24T15:49:02.994Z,14.40
2023-02-24T15:51:38.095Z,14.40
2023-02-24T15:54:12.450Z,14.40
2023-02-24T15:56:42.282Z,14.40
2023-02-24T15:59:14.498Z,14.40
2023-02-24T16:01:42.516Z,14.40
2023-02-24T16:04:11.894Z,14.40
2023-02-24T16:06:42.664Z,14.40
2023-02-24T16:09:15.785Z,14.40
2023-02-24T16:11:47.599Z,14.40
2023-02-24T16:14:18.880Z,14.30
2023-02-24T16:16:46.963Z,14.30
2023-02-24T16:19:17.171Z,14.30
2023-02-24T16:21:45.406Z,14.30
2023-02-24T16:24:13.415Z,14.20
2023-02-24T16:26:42.176Z,14.30
2023-02-24T16:29:15.554Z,14.30
2023-02-24T16:31:43.617Z,14.30
2023-02-24T16:34:16.983Z,14.20
2023-02-24T16:36:45.539Z,14.20
2023-02-24T16:39:14.835Z,14.20
2023-02-24T16:41:43.000Z,14.20
2023-02-24T16:44:11.333Z,14.20
2023-02-24T16:46:41.942Z,14.20
2023-02-24T16:49:18.884Z,14.20
2023-02-24T16:51:47.018Z,14.10
2023-02-24T16:54:14.925Z,14.10
2023-02-24T16:56:42.829Z,14.10
2023-02-24T16:59:10.790Z,14.10
2023-02-24T17:01:38.884Z,14.10
2023-02-24T17:04:09.939Z,14.10
2023-02-24T17:06:39.295Z,14.10
2023-02-24T17:09:07.372Z,14.10
2023-02-24T17:11:35.286Z,14.10
2023-02-24T17:14:03.163Z,14.00
2023-02-24T17:16:31.397Z,14.00
2023-02-24T17:18:59.311Z,14.00
2023-02-24T17:21:27.184Z,14.00
2023-02-24T17:23:56.384Z,14.00
2023-02-24T17:26:24.493Z,13.90
2023-02-24T17:28:52.533Z,13.90
2023-02-24T17:31:20.448Z,13.90
2023-02-24T17:33:48.418Z,13.90
2023-02-24T17:36:16.795Z,13.90
2023-02-24T17:38:44.751Z,13.90
2023-02-24T17:41:14.055Z,13.90
2023-02-24T17:43:42.112Z,13.90
2023-02-24T17:46:10.029Z,13.90
2023-02-24T17:48:38.014Z,13.90
2023-02-24T17:51:06.447Z,13.80
2023-02-24T17:53:34.852Z,13.80
2023-02-24T17:56:04.280Z,13.80
2023-02-24T17:58:34.599Z,13.60
2023-02-24T18:01:03.706Z,13.80
2023-02-24T18:03:33.103Z,13.80
2023-02-24T18:06:03.287Z,13.70
2023-02-24T18:08:33.111Z,13.70
2023-02-24T18:11:01.323Z,13.70
2023-02-24T18:13:31.212Z,13.70
2023-02-24T18:16:00.905Z,13.70
2023-02-24T18:18:30.331Z,13.70
2023-02-24T18:21:02.638Z,13.60
2023-02-24T18:23:31.071Z,13.60
2023-02-24T18:26:03.388Z,13.60
2023-02-24T18:28:31.978Z,13.60
2023-02-24T18:31:03.258Z,13.60
2023-02-24T18:33:31.450Z,13.60
2023-02-24T18:36:00.300Z,13.50
2023-02-24T18:38:28.773Z,13.50
2023-02-24T18:41:01.924Z,13.50
2023-02-24T18:43:31.449Z,13.50
2023-02-24T18:46:03.003Z,13.50
2023-02-24T18:48:32.541Z,13.50
2023-02-24T18:51:01.241Z,13.50
2023-02-24T18:53:32.004Z,13.40
2023-02-24T18:56:01.822Z,13.40
2023-02-24T18:58:30.007Z,13.40
2023-02-24T19:00:58.140Z,13.30
2023-02-24T19:03:27.848Z,13.30
2023-02-24T19:05:55.878Z,13.40
2023-02-24T19:08:23.873Z,13.40
2023-02-24T19:10:51.769Z,13.40
2023-02-24T19:13:19.678Z,13.30
2023-02-24T19:15:48.290Z,13.30
2023-02-24T19:18:16.966Z,13.30
2023-02-24T19:20:46.751Z,13.30
2023-02-24T19:23:14.630Z,13.30
2023-02-24T19:25:42.556Z,13.20
2023-02-24T19:28:10.535Z,13.20
2023-02-24T19:30:39.984Z,13.20
2023-02-24T19:33:09.544Z,13.20
2023-02-24T19:35:41.885Z,13.10
2023-02-24T19:38:15.943Z,13.10
2023-02-24T19:40:45.446Z,13.10
2023-02-24T19:43:13.384Z,13.10
2023-02-24T19:45:42.865Z,13.10
2023-02-24T19:48:11.545Z,13.10
2023-02-24T19:50:41.315Z,13.10
2023-02-24T19:53:11.112Z,13.10
2023-02-24T19:55:39.861Z,13.10
2023-02-24T19:58:08.415Z,13.10
2023-02-24T20:00:36.610Z,13.10
2023-02-24T20:03:04.924Z,13.10
2023-02-24T20:05:32.960Z,13.10
2023-02-24T20:08:00.869Z,13.00
2023-02-24T20:10:30.163Z,13.00
2023-02-24T20:12:58.777Z,13.00
2023-02-24T20:15:26.965Z,13.00
2023-02-24T20:17:54.916Z,13.00
2023-02-24T20:20:22.790Z,13.00
2023-02-24T20:22:50.816Z,13.00
2023-02-24T20:25:18.801Z,13.00
2023-02-24T20:27:48.063Z,13.00
2023-02-24T20:30:16.338Z,13.00
2023-02-24T20:32:44.367Z,13.00
2023-02-24T20:35:12.470Z,13.00
2023-02-24T20:37:40.463Z,13.00
2023-02-24T20:40:12.439Z,13.00
2023-02-24T20:42:40.445Z,13.00
2023-02-24T20:45:12.214Z,13.00
2023-02-24T20:47:40.191Z,12.90
2023-02-24T20:50:08.387Z,13.00
2023-02-24T20:52:37.586Z,12.90
2023-02-24T20:55:06.272Z,12.90
2023-02-24T20:57:34.158Z,12.90
2023-02-24T21:00:07.696Z,12.90
2023-02-24T21:02:40.337Z,12.90
2023-02-24T21:05:09.172Z,12.90
2023-02-24T21:07:38.124Z,12.90
2023-02-24T21:10:07.719Z,12.90
2023-02-24T21:12:35.676Z,12.90
2023-02-24T21:15:03.753Z,12.90
2023-02-24T21:17:34.198Z,12.90
2023-02-24T21:20:03.493Z,12.90
2023-02-24T21:22:31.905Z,12.90
2023-02-24T21:25:00.711Z,12.90
2023-02-24T21:27:28.598Z,12.80
2023-02-24T21:29:56.531Z,12.90
2023-02-24T21:32:24.553Z,12.90
2023-02-24T21:34:52.443Z,12.90
2023-02-24T21:37:21.670Z,12.90
2023-02-24T21:39:49.681Z,12.70
2023-02-24T21:42:17.722Z,12.90
2023-02-24T21:44:45.633Z,12.90
2023-02-24T21:47:13.919Z,12.90
2023-02-24T21:49:41.899Z,12.80
2023-02-24T21:52:11.469Z,12.90
2023-02-24T21:54:42.290Z,12.90
2023-02-24T21:57:10.224Z,12.90
2023-02-24T21:59:38.059Z,12.90
2023-02-24T22:02:06.042Z,12.90
2023-02-24T22:04:34.502Z,12.90
2023-02-24T22:07:02.433Z,12.90
2023-02-24T22:09:30.836Z,12.90
2023-02-24T22:12:00.199Z,12.90
2023-02-24T22:14:28.150Z,12.90
2023-02-24T22:16:56.044Z,12.90
2023-02-24T22:19:24.066Z,12.90
2023-02-24T22:21:52.313Z,12.80
2023-02-24T22:24:20.536Z,12.90
2023-02-24T22:26:48.422Z,12.90
2023-02-24T22:29:17.630Z,12.80
2023-02-24T22:31:49.465Z,12.80
2023-02-24T22:34:18.150Z,12.90
2023-02-24T22:36:46.030Z,12.90
2023-02-24T22:39:16.595Z,12.80
2023-02-24T22:41:45.507Z,12.90
2023-02-24T22:44:14.275Z,12.90
2023-02-24T22:46:43.547Z,12.80
2023-02-24T22:49:12.642Z,12.80
2023-02-24T22:51:42.177Z,12.80
2023-02-24T22:54:10.310Z,12.90
2023-02-24T22:56:38.456Z,12.80
2023-02-24T22:59:06.512Z,12.80
2023-02-24T23:01:37.061Z,12.80
2023-02-24T23:04:09.572Z,12.80
2023-02-24T23:06:37.896Z,12.80
2023-02-24T23:09:07.428Z,12.80
2023-02-24T23:11:39.022Z,12.80
2023-02-24T23:14:10.416Z,12.80
2023-02-24T23:16:39.197Z,12.80
2023-02-24T23:19:15.993Z,12.80
2023-02-24T23:21:47.041Z,12.70
2023-02-24T23:24:16.999Z,12.80
2023-02-24T23:26:47.767Z,12.80
2023-02-24T23:29:19.060Z,12.80
2023-02-24T23:31:47.569Z,12.80
2023-02-24T23:34:17.419Z,12.80
2023-02-24T23:36:47.737Z,12.70
2023-02-24T23:39:23.427Z,12.70
2023-02-24T23:41:56.740Z,12.80
2023-02-24T23:44:25.391Z,12.80
2023-02-24T23:46:53.254Z,12.70
2023-02-24T23:49:22.419Z,12.80
2023-02-24T23:51:50.320Z,12.80
2023-02-24T23:54:18.922Z,12.80
2023-02-24T23:56:47.077Z,12.80
2023-02-24T23:59:15.427Z,12.70
